Terminal Aerodrome Forecast
Issued by NWS New Orleans/Baton Rouge, LA

Home | Current Version | Previous Version | Text Only | Print | Product List | Glossary On
Versions: 1 2 3 4 5 6 7 8 9 10 11 12 13
367
FTUS44 KLIX 212352 AAB
TAFBTR
TAF AMD
KBTR 212352Z 2200/2224 12008KT 1SM TSRA BKN025CB BKN040
     FM220400 12008KT P6SM BKN020 BKN120
     FM221200 13006KT P6SM BKN015 OVC020 PROB30 2212/2215 4SM TSRA
      OVC003CB
     FM222000 22004KT P6SM VCTS BKN025CB=

USA.gov is the U.S. government's official web portal to all federal, state and local government web resources and services.